メインページ
METAR-TAF:

METAR-TAF

空港 :

カルガリー, アルバータ州, カナダ

カルガリー国際空港

緯度: 51-07N, 経度: 114-01W, 海抜: 1077m

現時点の気象観測

当レポートは38分前の15:00(UTC)に作成
南/南西の風 5kt
気温 6°C
湿度 45%
気圧 1029 hPa
視程: 64.4km
高度10000ftの雲はほとんどない

METAR: CYYC 231500Z 21005KT 40SM FEW100 06/M05 A3040 RMK AC1 AC TR SLP330

時間: 09:38 (15:38 UTC)

予報

当レポートは57分前の14:41(UTC)に作成
予報は23日の 15時(UTC)から 24日の 12時(UTC)まで有効
南/南西の風 6kt
視程: 10km
高度10000ftの雲はほとんどない
23日の 2000時(UTC)から
の風 12kt
視程: 10km
高度8000ftの雲はほとんどない
24日の 04時(UTC)から 24日の 06時(UTC)まで徐々に
南西の風 5kt
晴天

TAF: CYYC 231441Z 2315/2412 21006KT P6SM FEW100 FM232000 18012KT P6SM FEW080 BECMG 2404/2406 22005KT SKC RMK NXT FCST BY 231800Z

4,000以上の空港の気象観測と天気予報(METAR報とTAF報)

利用可能な観測所は地図上に黄色い丸と赤い丸で示す。

丸の上にカーソルを重ねると観測所名を参照できる。

次にクリックすると気象観測と天気予報を参照できる。

マップの切り替え:黒色「×」印の緑ボタンをクリックして拡大、「-」印の緑ボタンをクリックして縮小、緑色の三角印をクリックして隣りの地図に切り替え


METAR-TAF: